»·PEaware :: N357 KFOT-KSMF

N357 :: KFOT-KSMF

FLIGHT INFORMATION

Flight Status: Arrived
Operator: Privately registered:
United States
More flights under this callsign
Pilot: (1116947337)
Aircraft: CESSNA 182 SKYLANE
(C182)
More flights by this aircraft type
Origin: KFOT Rohnerville
United States
Destination: KSMF Sacramento Intl
United States
More flights between these airports :: More routes between these airports
Route: KFOT V195 RBL V23 SMF
File this flight plan on PilotEdge
Remarks: / V /
Altitude:
(Current/Filed)
9,000ft
Speed:
(Current/Filed)
130kts
Departed: 03-Jul-11 05:29 PM
Arrived: 03-Jul-11 06:56 PM
Distance/Time
Traveled:
162nm/1:27
Distance/Time
To Go:
Arrived

Flight Plot

Page will automatically refresh every two minutes.


Map Options




Map Legend


Flown Route
Filed Route
Departure Airport
Arrival Airport
Navaid (VOR, NDB)
Fix

Horizontal Profiles

Position Reports

Time Latitude Longitude Heading Altitude Ground
Speed
03-Jul-11 17:22 40.556817 -124.133904 37 395ft 0kts
03-Jul-11 17:23 40.556816 -124.133752 133 395ft 9kts
03-Jul-11 17:24 40.556432 -124.135496 306 395ft 14kts
03-Jul-11 17:25 40.557494 -124.137819 228 395ft 0kts
03-Jul-11 17:26 40.557493 -124.137820 228 395ft 0kts
03-Jul-11 17:27 40.553118 -124.131289 129 517ft 91kts
03-Jul-11 17:28 40.544035 -124.101036 104 1793ft 108kts
03-Jul-11 17:30 40.532388 -124.062677 111 2855ft 114kts
03-Jul-11 17:31 40.520459 -124.023615 111 3844ft 114kts
03-Jul-11 17:44 40.438951 -123.475448 107 8986ft 142kts
03-Jul-11 17:45 40.428001 -123.437577 107 8979ft 142kts
03-Jul-11 17:46 40.414709 -123.391625 107 8970ft 142kts
03-Jul-11 17:47 40.400709 -123.342787 107 8959ft 141kts
03-Jul-11 17:48 40.389477 -123.303415 107 8960ft 141kts
03-Jul-11 17:49 40.384374 -123.285958 108 8994ft 139kts
03-Jul-11 17:50 40.369995 -123.238209 108 9000ft 141kts
03-Jul-11 17:51 40.365861 -123.224493 108 9000ft 141kts
03-Jul-11 17:52 40.352114 -123.177407 108 8905ft 141kts
03-Jul-11 17:53 40.338599 -123.130180 108 8898ft 136kts
03-Jul-11 17:54 40.327887 -123.092886 108 8899ft 135kts
03-Jul-11 17:55 40.314555 -123.046483 108 8900ft 135kts
03-Jul-11 17:55 40.304355 -123.007928 103 8973ft 130kts
03-Jul-11 17:56 40.295751 -122.960906 100 9002ft 134kts
03-Jul-11 17:57 40.287525 -122.913079 100 9000ft 134kts
03-Jul-11 17:58 40.279298 -122.865056 100 8997ft 134kts
03-Jul-11 17:59 40.269196 -122.818180 107 8999ft 133kts
03-Jul-11 18:00 40.257149 -122.772026 107 8999ft 133kts
03-Jul-11 18:01 40.245110 -122.726038 108 8999ft 133kts
03-Jul-11 18:02 40.232446 -122.680132 108 8999ft 133kts
03-Jul-11 18:03 40.218627 -122.634796 110 8999ft 133kts
03-Jul-11 18:04 40.208253 -122.600988 110 8999ft 133kts
03-Jul-11 18:05 40.195648 -122.559916 110 9000ft 133kts
03-Jul-11 18:06 40.181789 -122.514765 110 9000ft 133kts
03-Jul-11 18:07 40.168150 -122.469388 109 9000ft 133kts
03-Jul-11 18:08 40.157693 -122.433538 109 8999ft 133kts
03-Jul-11 18:09 40.155716 -122.426760 109 8999ft 133kts
03-Jul-11 18:10 40.142433 -122.381230 109 9000ft 133kts
03-Jul-11 18:11 40.128811 -122.335889 110 9000ft 133kts
03-Jul-11 18:12 40.115431 -122.290406 109 8999ft 133kts
03-Jul-11 18:13 40.097876 -122.249398 155 9026ft 133kts
03-Jul-11 18:14 40.064316 -122.226871 146 9000ft 135kts
03-Jul-11 18:15 40.031981 -122.201291 156 9003ft 135kts
03-Jul-11 18:16 39.997009 -122.182545 156 8999ft 136kts
03-Jul-11 18:17 39.961962 -122.163592 156 8999ft 135kts
03-Jul-11 18:18 39.926956 -122.144671 156 9000ft 135kts
03-Jul-11 18:20 39.891912 -122.125772 156 8994ft 137kts
03-Jul-11 18:21 39.856235 -122.106992 156 9000ft 138kts
03-Jul-11 18:22 39.820327 -122.088069 156 9000ft 138kts
03-Jul-11 18:23 39.784401 -122.069148 156 8999ft 138kts
03-Jul-11 18:24 39.748516 -122.050257 156 9000ft 138kts
03-Jul-11 18:25 39.712601 -122.031360 156 9000ft 138kts
03-Jul-11 18:26 39.676729 -122.012496 156 9000ft 138kts
03-Jul-11 18:27 39.640949 -121.993690 156 9000ft 138kts
03-Jul-11 18:28 39.605050 -121.974831 156 9000ft 138kts
03-Jul-11 18:29 39.569089 -121.955865 156 9011ft 139kts
03-Jul-11 18:30 39.532940 -121.936681 156 9020ft 139kts
03-Jul-11 18:31 39.496731 -121.917472 156 9010ft 140kts
03-Jul-11 18:32 39.460418 -121.898134 156 8999ft 140kts
03-Jul-11 18:33 39.424426 -121.879258 156 8999ft 138kts
03-Jul-11 18:34 39.388541 -121.860466 156 8999ft 138kts
03-Jul-11 18:35 39.352643 -121.841676 156 9000ft 138kts
03-Jul-11 18:36 39.316739 -121.822893 156 8999ft 138kts
03-Jul-11 18:37 39.279443 -121.810068 171 9001ft 139kts
03-Jul-11 18:38 39.240119 -121.803097 171 8971ft 144kts
03-Jul-11 18:39 39.200572 -121.794587 171 9000ft 143kts
03-Jul-11 18:39 39.166895 -121.788735 174 8797ft 155kts
03-Jul-11 18:40 39.126032 -121.764330 146 7866ft 168kts
03-Jul-11 18:41 39.086036 -121.731147 146 6867ft 172kts
03-Jul-11 18:42 39.046016 -121.699050 146 5866ft 168kts
03-Jul-11 18:43 39.006399 -121.667344 146 4861ft 160kts
03-Jul-11 18:44 38.969345 -121.638217 146 3821ft 158kts
03-Jul-11 18:45 38.933318 -121.610162 146 2835ft 142kts
03-Jul-11 18:46 38.900277 -121.582911 146 1896ft 137kts
03-Jul-11 18:47 38.866656 -121.575896 181 1789ft 115kts
03-Jul-11 18:48 38.835392 -121.577700 182 1798ft 111kts
03-Jul-11 18:49 38.810890 -121.596429 233 1814ft 108kts
03-Jul-11 18:50 38.782840 -121.605460 181 1809ft 109kts
03-Jul-11 18:51 38.753798 -121.601097 174 1366ft 102kts
03-Jul-11 18:52 38.728341 -121.600851 180 560ft 82kts
03-Jul-11 18:53 38.706680 -121.601255 181 100ft 75kts
03-Jul-11 18:54 38.694873 -121.601360 183 31ft 3kts
03-Jul-11 18:55 38.692742 -121.602029 239 30ft 0kts

Navigation Log

Ident Type
Flight plan parsing failed, navigation log unavailable